sensor_id;sensor_type;location;lat;lon;timestamp;P1;durP1;ratioP1;P2;durP2;ratioP2
18899;SDS011;9582;52.018;6.306;2023-04-07T00:01:21;61.63;;;28.90;;
18899;SDS011;9582;52.018;6.306;2023-04-07T00:03:49;60.83;;;29.57;;
18899;SDS011;9582;52.018;6.306;2023-04-07T00:06:15;54.70;;;29.40;;
18899;SDS011;9582;52.018;6.306;2023-04-07T00:08:41;53.80;;;29.47;;
18899;SDS011;9582;52.018;6.306;2023-04-07T00:11:08;43.70;;;27.10;;
18899;SDS011;9582;52.018;6.306;2023-04-07T00:13:35;45.37;;;27.20;;
18899;SDS011;9582;52.018;6.306;2023-04-07T00:16:02;51.20;;;27.70;;
18899;SDS011;9582;52.018;6.306;2023-04-07T00:18:28;40.10;;;25.53;;
18899;SDS011;9582;52.018;6.306;2023-04-07T00:20:56;44.33;;;27.20;;
18899;SDS011;9582;52.018;6.306;2023-04-07T00:23:22;40.10;;;25.80;;
18899;SDS011;9582;52.018;6.306;2023-04-07T00:25:49;59.00;;;29.70;;
18899;SDS011;9582;52.018;6.306;2023-04-07T00:28:16;66.00;;;30.03;;
18899;SDS011;9582;52.018;6.306;2023-04-07T00:30:42;45.20;;;27.37;;
18899;SDS011;9582;52.018;6.306;2023-04-07T00:33:09;50.30;;;27.37;;
18899;SDS011;9582;52.018;6.306;2023-04-07T00:35:35;52.20;;;28.73;;
18899;SDS011;9582;52.018;6.306;2023-04-07T00:38:03;38.63;;;25.87;;
18899;SDS011;9582;52.018;6.306;2023-04-07T00:40:30;50.00;;;27.17;;
18899;SDS011;9582;52.018;6.306;2023-04-07T00:42:56;43.07;;;26.90;;
18899;SDS011;9582;52.018;6.306;2023-04-07T00:45:22;41.13;;;27.03;;
18899;SDS011;9582;52.018;6.306;2023-04-07T00:47:49;51.87;;;28.80;;
18899;SDS011;9582;52.018;6.306;2023-04-07T00:50:16;37.30;;;26.20;;
18899;SDS011;9582;52.018;6.306;2023-04-07T00:52:43;49.47;;;28.17;;
18899;SDS011;9582;52.018;6.306;2023-04-07T00:55:12;54.77;;;30.17;;
18899;SDS011;9582;52.018;6.306;2023-04-07T00:57:39;64.00;;;30.77;;
18899;SDS011;9582;52.018;6.306;2023-04-07T01:00:06;42.10;;;26.97;;
18899;SDS011;9582;52.018;6.306;2023-04-07T01:02:35;42.93;;;27.30;;
18899;SDS011;9582;52.018;6.306;2023-04-07T01:05:06;37.57;;;25.80;;
18899;SDS011;9582;52.018;6.306;2023-04-07T01:07:39;41.17;;;25.47;;
18899;SDS011;9582;52.018;6.306;2023-04-07T01:10:15;56.60;;;27.13;;
18899;SDS011;9582;52.018;6.306;2023-04-07T01:12:56;145.73;;;34.93;;
18899;SDS011;9582;52.018;6.306;2023-04-07T01:15:31;82.80;;;32.47;;
18899;SDS011;9582;52.018;6.306;2023-04-07T01:18:04;43.87;;;25.87;;
18899;SDS011;9582;52.018;6.306;2023-04-07T01:20:34;45.33;;;26.77;;
18899;SDS011;9582;52.018;6.306;2023-04-07T01:23:03;51.63;;;27.20;;
18899;SDS011;9582;52.018;6.306;2023-04-07T01:25:37;43.03;;;26.70;;
18899;SDS011;9582;52.018;6.306;2023-04-07T01:28:30;35.40;;;24.37;;
18899;SDS011;9582;52.018;6.306;2023-04-07T01:31:08;42.60;;;25.37;;
18899;SDS011;9582;52.018;6.306;2023-04-07T01:33:37;35.37;;;23.53;;
18899;SDS011;9582;52.018;6.306;2023-04-07T01:36:08;61.60;;;27.37;;
18899;SDS011;9582;52.018;6.306;2023-04-07T01:38:37;44.23;;;25.00;;
18899;SDS011;9582;52.018;6.306;2023-04-07T01:41:04;46.57;;;26.37;;
18899;SDS011;9582;52.018;6.306;2023-04-07T01:43:32;49.33;;;26.83;;
18899;SDS011;9582;52.018;6.306;2023-04-07T01:45:59;48.40;;;27.13;;
18899;SDS011;9582;52.018;6.306;2023-04-07T01:48:27;69.50;;;29.63;;
18899;SDS011;9582;52.018;6.306;2023-04-07T01:50:54;50.43;;;28.27;;
18899;SDS011;9582;52.018;6.306;2023-04-07T01:53:22;47.90;;;26.30;;
18899;SDS011;9582;52.018;6.306;2023-04-07T01:55:49;78.27;;;35.43;;
18899;SDS011;9582;52.018;6.306;2023-04-07T01:58:17;61.23;;;32.37;;
18899;SDS011;9582;52.018;6.306;2023-04-07T02:00:45;64.67;;;32.13;;
18899;SDS011;9582;52.018;6.306;2023-04-07T02:03:17;77.50;;;35.37;;
18899;SDS011;9582;52.018;6.306;2023-04-07T02:05:51;71.63;;;33.93;;
18899;SDS011;9582;52.018;6.306;2023-04-07T02:08:24;88.73;;;34.93;;
18899;SDS011;9582;52.018;6.306;2023-04-07T02:10:54;85.90;;;35.40;;
18899;SDS011;9582;52.018;6.306;2023-04-07T02:13:31;75.87;;;34.13;;
18899;SDS011;9582;52.018;6.306;2023-04-07T02:15:59;88.83;;;35.33;;
18899;SDS011;9582;52.018;6.306;2023-04-07T02:18:26;79.30;;;35.10;;
18899;SDS011;9582;52.018;6.306;2023-04-07T02:20:56;83.60;;;35.23;;
18899;SDS011;9582;52.018;6.306;2023-04-07T02:23:24;80.63;;;34.77;;
18899;SDS011;9582;52.018;6.306;2023-04-07T02:25:51;49.67;;;25.77;;
18899;SDS011;9582;52.018;6.306;2023-04-07T02:28:21;56.83;;;28.03;;
18899;SDS011;9582;52.018;6.306;2023-04-07T02:30:47;51.03;;;26.63;;
18899;SDS011;9582;52.018;6.306;2023-04-07T02:33:14;58.07;;;26.33;;
18899;SDS011;9582;52.018;6.306;2023-04-07T02:35:41;32.70;;;19.30;;
18899;SDS011;9582;52.018;6.306;2023-04-07T02:38:09;33.23;;;18.90;;
18899;SDS011;9582;52.018;6.306;2023-04-07T02:40:36;29.60;;;16.43;;
18899;SDS011;9582;52.018;6.306;2023-04-07T02:43:02;27.80;;;15.20;;
18899;SDS011;9582;52.018;6.306;2023-04-07T02:45:29;31.23;;;16.90;;
18899;SDS011;9582;52.018;6.306;2023-04-07T02:47:56;22.77;;;13.43;;
18899;SDS011;9582;52.018;6.306;2023-04-07T02:50:22;29.87;;;14.10;;
18899;SDS011;9582;52.018;6.306;2023-04-07T02:52:50;23.03;;;12.43;;
18899;SDS011;9582;52.018;6.306;2023-04-07T02:55:18;22.23;;;11.87;;
18899;SDS011;9582;52.018;6.306;2023-04-07T02:57:44;20.57;;;11.43;;
18899;SDS011;9582;52.018;6.306;2023-04-07T03:00:22;20.47;;;10.50;;
18899;SDS011;9582;52.018;6.306;2023-04-07T03:03:06;15.20;;;8.83;;
18899;SDS011;9582;52.018;6.306;2023-04-07T03:05:36;14.80;;;8.40;;
18899;SDS011;9582;52.018;6.306;2023-04-07T03:08:03;11.50;;;7.00;;
18899;SDS011;9582;52.018;6.306;2023-04-07T03:10:31;11.30;;;7.00;;
18899;SDS011;9582;52.018;6.306;2023-04-07T03:12:58;16.30;;;6.93;;
18899;SDS011;9582;52.018;6.306;2023-04-07T03:15:25;13.50;;;6.67;;
18899;SDS011;9582;52.018;6.306;2023-04-07T03:17:52;10.13;;;6.20;;
18899;SDS011;9582;52.018;6.306;2023-04-07T03:20:19;13.47;;;6.83;;
18899;SDS011;9582;52.018;6.306;2023-04-07T03:22:45;11.07;;;6.50;;
18899;SDS011;9582;52.018;6.306;2023-04-07T03:25:19;11.07;;;6.50;;
18899;SDS011;9582;52.018;6.306;2023-04-07T03:27:48;11.13;;;6.30;;
18899;SDS011;9582;52.018;6.306;2023-04-07T03:30:15;11.30;;;5.97;;
18899;SDS011;9582;52.018;6.306;2023-04-07T03:32:43;13.53;;;6.63;;
18899;SDS011;9582;52.018;6.306;2023-04-07T03:35:10;10.03;;;6.47;;
18899;SDS011;9582;52.018;6.306;2023-04-07T03:37:36;14.77;;;6.97;;
18899;SDS011;9582;52.018;6.306;2023-04-07T03:40:07;16.07;;;7.23;;
18899;SDS011;9582;52.018;6.306;2023-04-07T03:42:35;16.77;;;7.00;;
18899;SDS011;9582;52.018;6.306;2023-04-07T03:45:06;14.23;;;7.33;;
18899;SDS011;9582;52.018;6.306;2023-04-07T03:47:36;16.43;;;7.53;;
18899;SDS011;9582;52.018;6.306;2023-04-07T03:50:04;13.63;;;8.00;;
18899;SDS011;9582;52.018;6.306;2023-04-07T03:52:38;14.27;;;8.07;;
18899;SDS011;9582;52.018;6.306;2023-04-07T03:55:13;15.73;;;7.53;;
18899;SDS011;9582;52.018;6.306;2023-04-07T03:57:40;19.67;;;8.67;;
18899;SDS011;9582;52.018;6.306;2023-04-07T04:00:09;18.67;;;9.00;;
18899;SDS011;9582;52.018;6.306;2023-04-07T04:02:49;18.43;;;8.50;;
18899;SDS011;9582;52.018;6.306;2023-04-07T04:05:18;15.10;;;7.80;;
18899;SDS011;9582;52.018;6.306;2023-04-07T04:07:45;14.60;;;7.90;;
18899;SDS011;9582;52.018;6.306;2023-04-07T04:10:12;18.70;;;9.33;;
18899;SDS011;9582;52.018;6.306;2023-04-07T04:12:42;19.67;;;9.60;;
18899;SDS011;9582;52.018;6.306;2023-04-07T04:15:12;19.60;;;8.73;;
18899;SDS011;9582;52.018;6.306;2023-04-07T04:17:39;19.97;;;10.13;;
18899;SDS011;9582;52.018;6.306;2023-04-07T04:20:07;20.10;;;10.23;;
18899;SDS011;9582;52.018;6.306;2023-04-07T04:22:44;20.00;;;9.93;;
18899;SDS011;9582;52.018;6.306;2023-04-07T04:25:11;20.17;;;9.83;;
18899;SDS011;9582;52.018;6.306;2023-04-07T04:27:40;20.87;;;9.73;;
18899;SDS011;9582;52.018;6.306;2023-04-07T04:30:16;20.63;;;10.40;;
18899;SDS011;9582;52.018;6.306;2023-04-07T04:32:49;19.30;;;9.90;;
18899;SDS011;9582;52.018;6.306;2023-04-07T04:35:21;25.10;;;11.10;;
18899;SDS011;9582;52.018;6.306;2023-04-07T04:38:04;21.83;;;10.10;;
18899;SDS011;9582;52.018;6.306;2023-04-07T04:40:32;17.37;;;9.90;;
18899;SDS011;9582;52.018;6.306;2023-04-07T04:42:59;21.93;;;10.57;;
18899;SDS011;9582;52.018;6.306;2023-04-07T04:45:27;23.10;;;10.33;;
18899;SDS011;9582;52.018;6.306;2023-04-07T04:47:53;21.93;;;10.73;;
18899;SDS011;9582;52.018;6.306;2023-04-07T04:50:20;23.63;;;10.23;;
18899;SDS011;9582;52.018;6.306;2023-04-07T04:52:48;20.00;;;9.97;;
18899;SDS011;9582;52.018;6.306;2023-04-07T04:55:18;18.23;;;10.03;;
18899;SDS011;9582;52.018;6.306;2023-04-07T04:57:46;22.80;;;10.20;;
18899;SDS011;9582;52.018;6.306;2023-04-07T05:00:18;24.17;;;10.43;;
18899;SDS011;9582;52.018;6.306;2023-04-07T05:02:49;24.57;;;10.27;;
18899;SDS011;9582;52.018;6.306;2023-04-07T05:05:16;23.77;;;9.80;;
18899;SDS011;9582;52.018;6.306;2023-04-07T05:07:42;18.47;;;9.73;;
18899;SDS011;9582;52.018;6.306;2023-04-07T05:10:12;23.27;;;10.57;;
18899;SDS011;9582;52.018;6.306;2023-04-07T05:12:45;20.00;;;10.07;;
18899;SDS011;9582;52.018;6.306;2023-04-07T05:15:11;23.33;;;9.67;;
18899;SDS011;9582;52.018;6.306;2023-04-07T05:17:39;21.73;;;10.23;;
18899;SDS011;9582;52.018;6.306;2023-04-07T05:20:10;23.60;;;10.13;;
18899;SDS011;9582;52.018;6.306;2023-04-07T05:22:39;22.57;;;10.90;;
18899;SDS011;9582;52.018;6.306;2023-04-07T05:25:09;20.83;;;9.60;;
18899;SDS011;9582;52.018;6.306;2023-04-07T05:27:38;21.27;;;10.30;;
18899;SDS011;9582;52.018;6.306;2023-04-07T05:30:11;25.20;;;10.57;;
18899;SDS011;9582;52.018;6.306;2023-04-07T05:32:38;20.93;;;10.20;;
18899;SDS011;9582;52.018;6.306;2023-04-07T05:35:13;20.97;;;10.27;;
18899;SDS011;9582;52.018;6.306;2023-04-07T05:37:47;23.53;;;10.43;;
18899;SDS011;9582;52.018;6.306;2023-04-07T05:40:15;24.57;;;10.97;;
18899;SDS011;9582;52.018;6.306;2023-04-07T05:42:42;26.47;;;11.63;;
18899;SDS011;9582;52.018;6.306;2023-04-07T05:45:09;23.17;;;11.73;;
18899;SDS011;9582;52.018;6.306;2023-04-07T05:47:39;22.60;;;10.37;;
18899;SDS011;9582;52.018;6.306;2023-04-07T05:50:08;27.63;;;10.90;;
18899;SDS011;9582;52.018;6.306;2023-04-07T05:52:38;22.27;;;10.40;;
18899;SDS011;9582;52.018;6.306;2023-04-07T05:55:16;24.20;;;11.47;;
18899;SDS011;9582;52.018;6.306;2023-04-07T05:57:43;22.60;;;11.13;;
18899;SDS011;9582;52.018;6.306;2023-04-07T06:00:11;26.57;;;12.33;;
18899;SDS011;9582;52.018;6.306;2023-04-07T06:02:46;28.27;;;11.70;;
18899;SDS011;9582;52.018;6.306;2023-04-07T06:05:17;23.53;;;11.80;;
18899;SDS011;9582;52.018;6.306;2023-04-07T06:07:46;24.53;;;11.33;;
18899;SDS011;9582;52.018;6.306;2023-04-07T06:10:13;24.87;;;10.80;;
18899;SDS011;9582;52.018;6.306;2023-04-07T06:12:40;28.53;;;11.00;;
18899;SDS011;9582;52.018;6.306;2023-04-07T06:15:06;22.77;;;11.93;;
18899;SDS011;9582;52.018;6.306;2023-04-07T06:17:33;27.00;;;11.73;;
18899;SDS011;9582;52.018;6.306;2023-04-07T06:20:00;24.80;;;11.27;;
18899;SDS011;9582;52.018;6.306;2023-04-07T06:22:26;26.20;;;11.03;;
18899;SDS011;9582;52.018;6.306;2023-04-07T06:24:54;25.23;;;11.23;;
18899;SDS011;9582;52.018;6.306;2023-04-07T06:27:21;22.40;;;10.93;;
18899;SDS011;9582;52.018;6.306;2023-04-07T06:29:48;23.73;;;11.47;;
18899;SDS011;9582;52.018;6.306;2023-04-07T06:32:15;25.33;;;11.33;;
18899;SDS011;9582;52.018;6.306;2023-04-07T06:34:41;24.57;;;11.60;;
18899;SDS011;9582;52.018;6.306;2023-04-07T06:37:08;23.50;;;10.97;;
18899;SDS011;9582;52.018;6.306;2023-04-07T06:39:34;25.83;;;11.40;;
18899;SDS011;9582;52.018;6.306;2023-04-07T06:42:03;23.63;;;11.67;;
18899;SDS011;9582;52.018;6.306;2023-04-07T06:44:35;23.70;;;10.87;;
18899;SDS011;9582;52.018;6.306;2023-04-07T06:47:02;26.27;;;11.47;;
18899;SDS011;9582;52.018;6.306;2023-04-07T06:49:29;23.00;;;10.77;;
18899;SDS011;9582;52.018;6.306;2023-04-07T06:51:55;20.83;;;10.83;;
18899;SDS011;9582;52.018;6.306;2023-04-07T06:54:22;20.53;;;10.70;;
18899;SDS011;9582;52.018;6.306;2023-04-07T06:56:48;21.97;;;10.40;;
18899;SDS011;9582;52.018;6.306;2023-04-07T06:59:16;24.93;;;10.97;;
18899;SDS011;9582;52.018;6.306;2023-04-07T07:01:43;24.43;;;10.67;;
18899;SDS011;9582;52.018;6.306;2023-04-07T07:04:10;21.33;;;10.53;;
18899;SDS011;9582;52.018;6.306;2023-04-07T07:06:36;21.90;;;10.40;;
18899;SDS011;9582;52.018;6.306;2023-04-07T07:09:03;21.27;;;11.17;;
18899;SDS011;9582;52.018;6.306;2023-04-07T07:11:29;20.33;;;9.93;;
18899;SDS011;9582;52.018;6.306;2023-04-07T07:13:56;21.57;;;10.67;;
18899;SDS011;9582;52.018;6.306;2023-04-07T07:16:24;23.03;;;10.67;;
18899;SDS011;9582;52.018;6.306;2023-04-07T07:18:50;18.23;;;10.10;;
18899;SDS011;9582;52.018;6.306;2023-04-07T07:21:17;18.33;;;11.43;;
18899;SDS011;9582;52.018;6.306;2023-04-07T07:23:44;26.10;;;11.37;;
18899;SDS011;9582;52.018;6.306;2023-04-07T07:26:10;18.97;;;10.80;;
18899;SDS011;9582;52.018;6.306;2023-04-07T07:28:37;23.80;;;11.50;;
18899;SDS011;9582;52.018;6.306;2023-04-07T07:31:07;22.00;;;10.87;;
18899;SDS011;9582;52.018;6.306;2023-04-07T07:33:36;22.17;;;11.23;;
18899;SDS011;9582;52.018;6.306;2023-04-07T07:36:04;21.47;;;10.83;;
18899;SDS011;9582;52.018;6.306;2023-04-07T07:38:31;16.23;;;9.33;;
18899;SDS011;9582;52.018;6.306;2023-04-07T07:40:57;21.27;;;10.53;;
18899;SDS011;9582;52.018;6.306;2023-04-07T07:43:24;17.27;;;9.80;;
18899;SDS011;9582;52.018;6.306;2023-04-07T07:45:50;23.67;;;10.47;;
18899;SDS011;9582;52.018;6.306;2023-04-07T07:48:17;18.63;;;9.80;;
18899;SDS011;9582;52.018;6.306;2023-04-07T07:50:45;15.23;;;9.57;;
18899;SDS011;9582;52.018;6.306;2023-04-07T07:53:12;18.40;;;9.47;;
18899;SDS011;9582;52.018;6.306;2023-04-07T07:55:38;24.07;;;10.10;;
18899;SDS011;9582;52.018;6.306;2023-04-07T07:58:06;21.00;;;11.30;;
18899;SDS011;9582;52.018;6.306;2023-04-07T08:00:32;24.63;;;10.10;;
18899;SDS011;9582;52.018;6.306;2023-04-07T08:02:59;20.17;;;10.80;;
18899;SDS011;9582;52.018;6.306;2023-04-07T08:05:26;25.17;;;10.70;;
18899;SDS011;9582;52.018;6.306;2023-04-07T08:07:54;19.63;;;10.87;;
18899;SDS011;9582;52.018;6.306;2023-04-07T08:10:20;21.10;;;10.37;;
18899;SDS011;9582;52.018;6.306;2023-04-07T08:12:48;22.53;;;11.77;;
18899;SDS011;9582;52.018;6.306;2023-04-07T08:15:15;23.03;;;11.00;;
18899;SDS011;9582;52.018;6.306;2023-04-07T08:17:42;19.40;;;10.40;;
18899;SDS011;9582;52.018;6.306;2023-04-07T08:20:09;25.17;;;11.10;;
18899;SDS011;9582;52.018;6.306;2023-04-07T08:22:36;24.47;;;10.83;;
18899;SDS011;9582;52.018;6.306;2023-04-07T08:25:04;20.47;;;10.67;;
18899;SDS011;9582;52.018;6.306;2023-04-07T08:27:31;23.17;;;11.43;;
18899;SDS011;9582;52.018;6.306;2023-04-07T08:29:58;22.47;;;10.27;;
18899;SDS011;9582;52.018;6.306;2023-04-07T08:32:32;19.73;;;9.83;;
18899;SDS011;9582;52.018;6.306;2023-04-07T08:34:59;19.90;;;9.90;;
18899;SDS011;9582;52.018;6.306;2023-04-07T08:37:26;17.03;;;9.50;;
18899;SDS011;9582;52.018;6.306;2023-04-07T08:39:52;14.93;;;9.07;;
18899;SDS011;9582;52.018;6.306;2023-04-07T08:42:20;15.70;;;9.40;;
18899;SDS011;9582;52.018;6.306;2023-04-07T08:44:49;15.13;;;8.43;;
18899;SDS011;9582;52.018;6.306;2023-04-07T08:47:17;16.03;;;8.40;;
18899;SDS011;9582;52.018;6.306;2023-04-07T08:49:44;13.57;;;7.50;;
18899;SDS011;9582;52.018;6.306;2023-04-07T08:52:14;16.10;;;8.57;;
18899;SDS011;9582;52.018;6.306;2023-04-07T08:54:41;13.30;;;7.90;;
18899;SDS011;9582;52.018;6.306;2023-04-07T08:57:08;13.80;;;8.00;;
18899;SDS011;9582;52.018;6.306;2023-04-07T08:59:36;10.67;;;7.07;;
18899;SDS011;9582;52.018;6.306;2023-04-07T09:02:07;12.83;;;7.80;;
18899;SDS011;9582;52.018;6.306;2023-04-07T09:04:34;10.50;;;6.40;;
18899;SDS011;9582;52.018;6.306;2023-04-07T09:07:01;8.67;;;4.90;;
18899;SDS011;9582;52.018;6.306;2023-04-07T09:09:27;8.90;;;5.13;;
18899;SDS011;9582;52.018;6.306;2023-04-07T09:11:54;8.53;;;5.73;;
18899;SDS011;9582;52.018;6.306;2023-04-07T09:14:21;7.30;;;4.57;;
18899;SDS011;9582;52.018;6.306;2023-04-07T09:16:49;5.63;;;4.90;;
18899;SDS011;9582;52.018;6.306;2023-04-07T09:19:15;11.17;;;5.77;;
18899;SDS011;9582;52.018;6.306;2023-04-07T09:21:48;9.10;;;5.73;;
18899;SDS011;9582;52.018;6.306;2023-04-07T09:24:22;7.57;;;4.90;;
18899;SDS011;9582;52.018;6.306;2023-04-07T09:26:50;8.67;;;5.47;;
18899;SDS011;9582;52.018;6.306;2023-04-07T09:29:34;6.80;;;4.73;;
18899;SDS011;9582;52.018;6.306;2023-04-07T09:32:02;6.70;;;4.40;;
18899;SDS011;9582;52.018;6.306;2023-04-07T09:34:29;7.33;;;4.23;;
18899;SDS011;9582;52.018;6.306;2023-04-07T09:36:56;6.03;;;4.53;;
18899;SDS011;9582;52.018;6.306;2023-04-07T09:39:24;6.00;;;4.30;;
18899;SDS011;9582;52.018;6.306;2023-04-07T09:41:51;6.17;;;4.73;;
18899;SDS011;9582;52.018;6.306;2023-04-07T09:44:18;6.47;;;4.20;;
18899;SDS011;9582;52.018;6.306;2023-04-07T09:46:47;5.73;;;4.07;;
18899;SDS011;9582;52.018;6.306;2023-04-07T09:49:16;6.90;;;3.90;;
18899;SDS011;9582;52.018;6.306;2023-04-07T09:51:53;4.80;;;3.33;;
18899;SDS011;9582;52.018;6.306;2023-04-07T09:54:30;7.40;;;4.20;;
18899;SDS011;9582;52.018;6.306;2023-04-07T09:56:58;5.17;;;4.23;;
18899;SDS011;9582;52.018;6.306;2023-04-07T09:59:26;7.33;;;4.03;;
18899;SDS011;9582;52.018;6.306;2023-04-07T10:01:53;4.77;;;3.77;;
18899;SDS011;9582;52.018;6.306;2023-04-07T10:04:21;5.90;;;4.20;;
18899;SDS011;9582;52.018;6.306;2023-04-07T10:06:49;5.03;;;3.33;;
18899;SDS011;9582;52.018;6.306;2023-04-07T10:09:16;4.00;;;3.53;;
18899;SDS011;9582;52.018;6.306;2023-04-07T10:11:43;6.63;;;3.23;;
18899;SDS011;9582;52.018;6.306;2023-04-07T10:14:10;3.70;;;3.27;;
18899;SDS011;9582;52.018;6.306;2023-04-07T10:16:36;4.50;;;3.07;;
18899;SDS011;9582;52.018;6.306;2023-04-07T10:19:03;3.33;;;3.03;;
18899;SDS011;9582;52.018;6.306;2023-04-07T10:21:32;3.30;;;2.63;;
18899;SDS011;9582;52.018;6.306;2023-04-07T10:24:04;2.80;;;2.60;;
18899;SDS011;9582;52.018;6.306;2023-04-07T10:26:44;4.43;;;3.10;;
18899;SDS011;9582;52.018;6.306;2023-04-07T10:29:16;3.30;;;2.77;;
18899;SDS011;9582;52.018;6.306;2023-04-07T10:31:44;5.60;;;2.90;;
18899;SDS011;9582;52.018;6.306;2023-04-07T10:34:11;3.47;;;2.93;;
18899;SDS011;9582;52.018;6.306;2023-04-07T10:39:37;4.03;;;2.63;;
18899;SDS011;9582;52.018;6.306;2023-04-07T10:42:03;4.53;;;2.97;;
18899;SDS011;9582;52.018;6.306;2023-04-07T10:44:43;2.83;;;2.53;;
18899;SDS011;9582;52.018;6.306;2023-04-07T10:47:12;3.60;;;2.80;;
18899;SDS011;9582;52.018;6.306;2023-04-07T10:49:38;3.00;;;2.70;;
18899;SDS011;9582;52.018;6.306;2023-04-07T10:58:12;3.10;;;2.27;;
18899;SDS011;9582;52.018;6.306;2023-04-07T11:00:40;2.83;;;2.50;;
18899;SDS011;9582;52.018;6.306;2023-04-07T11:03:09;2.80;;;2.50;;
18899;SDS011;9582;52.018;6.306;2023-04-07T11:05:37;2.53;;;2.20;;
18899;SDS011;9582;52.018;6.306;2023-04-07T11:08:05;1.83;;;1.73;;
18899;SDS011;9582;52.018;6.306;2023-04-07T11:10:32;1.97;;;1.80;;
18899;SDS011;9582;52.018;6.306;2023-04-07T11:13:00;2.50;;;1.90;;
18899;SDS011;9582;52.018;6.306;2023-04-07T11:15:31;3.50;;;2.30;;
18899;SDS011;9582;52.018;6.306;2023-04-07T11:18:05;2.97;;;2.40;;
18899;SDS011;9582;52.018;6.306;2023-04-07T11:20:40;4.13;;;2.60;;
18899;SDS011;9582;52.018;6.306;2023-04-07T11:23:11;3.37;;;2.50;;
18899;SDS011;9582;52.018;6.306;2023-04-07T11:25:38;4.43;;;2.87;;
18899;SDS011;9582;52.018;6.306;2023-04-07T11:28:08;3.13;;;2.83;;
18899;SDS011;9582;52.018;6.306;2023-04-07T11:30:35;3.73;;;2.60;;
18899;SDS011;9582;52.018;6.306;2023-04-07T11:33:02;2.90;;;2.60;;
18899;SDS011;9582;52.018;6.306;2023-04-07T11:35:29;3.10;;;2.80;;
18899;SDS011;9582;52.018;6.306;2023-04-07T11:37:56;2.80;;;2.60;;
18899;SDS011;9582;52.018;6.306;2023-04-07T11:40:31;3.07;;;2.77;;
18899;SDS011;9582;52.018;6.306;2023-04-07T11:42:59;2.97;;;2.67;;
18899;SDS011;9582;52.018;6.306;2023-04-07T11:45:26;3.20;;;2.87;;
18899;SDS011;9582;52.018;6.306;2023-04-07T11:47:53;2.83;;;2.40;;
18899;SDS011;9582;52.018;6.306;2023-04-07T11:53:04;3.03;;;2.70;;
18899;SDS011;9582;52.018;6.306;2023-04-07T11:55:32;3.60;;;3.10;;
18899;SDS011;9582;52.018;6.306;2023-04-07T11:58:04;3.20;;;2.90;;
18899;SDS011;9582;52.018;6.306;2023-04-07T12:00:31;3.47;;;3.10;;
18899;SDS011;9582;52.018;6.306;2023-04-07T12:03:07;2.80;;;2.50;;
18899;SDS011;9582;52.018;6.306;2023-04-07T12:05:40;3.50;;;2.17;;
18899;SDS011;9582;52.018;6.306;2023-04-07T12:08:07;2.50;;;2.07;;
18899;SDS011;9582;52.018;6.306;2023-04-07T12:10:35;2.03;;;1.83;;
18899;SDS011;9582;52.018;6.306;2023-04-07T12:13:05;2.13;;;1.97;;
18899;SDS011;9582;52.018;6.306;2023-04-07T12:15:32;2.33;;;2.13;;
18899;SDS011;9582;52.018;6.306;2023-04-07T12:17:58;1.70;;;1.60;;
18899;SDS011;9582;52.018;6.306;2023-04-07T12:20:27;1.07;;;0.97;;
18899;SDS011;9582;52.018;6.306;2023-04-07T12:22:53;1.63;;;0.90;;
18899;SDS011;9582;52.018;6.306;2023-04-07T12:25:20;1.53;;;1.10;;
18899;SDS011;9582;52.018;6.306;2023-04-07T12:27:48;1.50;;;1.40;;
18899;SDS011;9582;52.018;6.306;2023-04-07T12:30:15;1.47;;;1.37;;
18899;SDS011;9582;52.018;6.306;2023-04-07T12:32:41;2.60;;;1.70;;
18899;SDS011;9582;52.018;6.306;2023-04-07T12:35:08;2.37;;;2.10;;
18899;SDS011;9582;52.018;6.306;2023-04-07T12:37:36;2.60;;;2.17;;
18899;SDS011;9582;52.018;6.306;2023-04-07T12:40:03;3.03;;;2.20;;
18899;SDS011;9582;52.018;6.306;2023-04-07T12:42:30;4.03;;;2.77;;
18899;SDS011;9582;52.018;6.306;2023-04-07T12:44:58;3.20;;;2.67;;
18899;SDS011;9582;52.018;6.306;2023-04-07T12:47:24;3.57;;;2.67;;
18899;SDS011;9582;52.018;6.306;2023-04-07T12:49:51;3.37;;;2.73;;
18899;SDS011;9582;52.018;6.306;2023-04-07T12:52:17;3.63;;;2.70;;
18899;SDS011;9582;52.018;6.306;2023-04-07T12:54:44;3.90;;;2.90;;
18899;SDS011;9582;52.018;6.306;2023-04-07T12:57:10;3.93;;;2.90;;
18899;SDS011;9582;52.018;6.306;2023-04-07T12:59:37;4.20;;;2.90;;
18899;SDS011;9582;52.018;6.306;2023-04-07T13:02:05;3.70;;;3.00;;
18899;SDS011;9582;52.018;6.306;2023-04-07T13:04:31;4.67;;;3.50;;
18899;SDS011;9582;52.018;6.306;2023-04-07T13:06:59;9.03;;;7.80;;
18899;SDS011;9582;52.018;6.306;2023-04-07T13:09:27;8.90;;;8.00;;
18899;SDS011;9582;52.018;6.306;2023-04-07T13:11:53;9.93;;;8.47;;
18899;SDS011;9582;52.018;6.306;2023-04-07T13:14:21;10.30;;;8.97;;
18899;SDS011;9582;52.018;6.306;2023-04-07T13:16:48;10.40;;;9.07;;
18899;SDS011;9582;52.018;6.306;2023-04-07T13:19:16;13.53;;;10.13;;
18899;SDS011;9582;52.018;6.306;2023-04-07T13:21:42;12.37;;;9.57;;
18899;SDS011;9582;52.018;6.306;2023-04-07T13:24:09;11.77;;;10.30;;
18899;SDS011;9582;52.018;6.306;2023-04-07T13:26:35;15.77;;;14.07;;
18899;SDS011;9582;52.018;6.306;2023-04-07T13:29:02;15.20;;;12.73;;
18899;SDS011;9582;52.018;6.306;2023-04-07T13:31:28;12.53;;;10.60;;
18899;SDS011;9582;52.018;6.306;2023-04-07T13:33:55;13.03;;;10.40;;
18899;SDS011;9582;52.018;6.306;2023-04-07T13:36:23;13.23;;;11.20;;
18899;SDS011;9582;52.018;6.306;2023-04-07T13:38:50;11.43;;;10.13;;
18899;SDS011;9582;52.018;6.306;2023-04-07T13:41:16;12.63;;;10.50;;
18899;SDS011;9582;52.018;6.306;2023-04-07T13:43:43;12.50;;;11.00;;
18899;SDS011;9582;52.018;6.306;2023-04-07T13:46:11;13.40;;;11.07;;
18899;SDS011;9582;52.018;6.306;2023-04-07T13:48:39;13.70;;;10.77;;
18899;SDS011;9582;52.018;6.306;2023-04-07T13:51:05;14.33;;;11.27;;
18899;SDS011;9582;52.018;6.306;2023-04-07T13:53:33;16.13;;;11.80;;
18899;SDS011;9582;52.018;6.306;2023-04-07T13:55:59;13.50;;;11.00;;
18899;SDS011;9582;52.018;6.306;2023-04-07T13:58:27;11.83;;;10.57;;
18899;SDS011;9582;52.018;6.306;2023-04-07T14:00:54;13.47;;;10.47;;
18899;SDS011;9582;52.018;6.306;2023-04-07T14:03:21;12.37;;;10.03;;
18899;SDS011;9582;52.018;6.306;2023-04-07T14:05:47;11.00;;;9.40;;
18899;SDS011;9582;52.018;6.306;2023-04-07T14:08:14;11.30;;;9.83;;
18899;SDS011;9582;52.018;6.306;2023-04-07T14:10:44;12.13;;;10.00;;
18899;SDS011;9582;52.018;6.306;2023-04-07T14:13:11;11.13;;;9.37;;
18899;SDS011;9582;52.018;6.306;2023-04-07T14:15:37;10.20;;;9.10;;
18899;SDS011;9582;52.018;6.306;2023-04-07T14:18:04;9.93;;;8.93;;
18899;SDS011;9582;52.018;6.306;2023-04-07T14:20:30;11.47;;;9.40;;
18899;SDS011;9582;52.018;6.306;2023-04-07T14:22:57;10.47;;;9.37;;
18899;SDS011;9582;52.018;6.306;2023-04-07T14:25:23;12.50;;;9.07;;
18899;SDS011;9582;52.018;6.306;2023-04-07T14:27:51;10.97;;;9.10;;
18899;SDS011;9582;52.018;6.306;2023-04-07T14:30:18;10.60;;;9.00;;
18899;SDS011;9582;52.018;6.306;2023-04-07T14:32:47;9.20;;;8.07;;
18899;SDS011;9582;52.018;6.306;2023-04-07T14:35:13;9.07;;;8.17;;
18899;SDS011;9582;52.018;6.306;2023-04-07T14:37:40;10.63;;;8.00;;
18899;SDS011;9582;52.018;6.306;2023-04-07T14:40:07;8.43;;;7.50;;
18899;SDS011;9582;52.018;6.306;2023-04-07T14:42:34;8.20;;;7.40;;
18899;SDS011;9582;52.018;6.306;2023-04-07T14:45:03;7.97;;;7.17;;
18899;SDS011;9582;52.018;6.306;2023-04-07T14:47:30;7.17;;;6.37;;
18899;SDS011;9582;52.018;6.306;2023-04-07T14:49:56;7.77;;;7.00;;
18899;SDS011;9582;52.018;6.306;2023-04-07T14:52:23;7.40;;;6.40;;
18899;SDS011;9582;52.018;6.306;2023-04-07T14:54:49;7.73;;;7.00;;
18899;SDS011;9582;52.018;6.306;2023-04-07T14:57:16;8.60;;;7.70;;
18899;SDS011;9582;52.018;6.306;2023-04-07T14:59:43;7.27;;;6.47;;
18899;SDS011;9582;52.018;6.306;2023-04-07T15:02:11;7.03;;;6.33;;
18899;SDS011;9582;52.018;6.306;2023-04-07T15:04:37;8.20;;;7.33;;